Time;durP1;ratioP1;P1;durP2;ratioP2;P2;SDS_P1;SDS_P2;PMS_P1;PMS_P2;Temp;Humidity;BMP_temperature;BMP_pressure;BME280_temperature;BME280_humidity;BME280_pressure;Samples;Min_cycle;Max_cycle;Signal;HPM_P1;HPM_P2
2022/12/09 00:01:59;;;;;;;17.37;12.25;;;;;;;-1.07;93.37;99852.44;1681085;85;21069;-73
2022/12/09 00:04:25;;;;;;;18.12;12.10;;;;;;;-1.09;93.50;99852.16;1686231;83;21097;-73
2022/12/09 00:06:52;;;;;;;16.15;10.88;;;;;;;-1.07;93.48;99845.91;1682539;83;21035;-73
2022/12/09 00:09:18;;;;;;;17.02;11.68;;;;;;;-1.08;93.63;99836.88;1647870;85;21575;-75
2022/12/09 00:11:45;;;;;;;17.73;13.00;;;;;;;-1.09;93.45;99821.70;1663796;85;21062;-73
2022/12/09 00:14:11;;;;;;;14.33;10.30;;;;;;;-1.04;93.28;99837.09;1653173;85;21046;-73
2022/12/09 00:16:38;;;;;;;19.45;12.07;;;;;;;-1.00;93.40;99832.06;1644878;85;21242;-75
2022/12/09 00:19:06;;;;;;;16.00;11.57;;;;;;;-1.01;93.48;99825.98;1645109;87;21164;-74
2022/12/09 00:21:32;;;;;;;14.65;10.00;;;;;;;-0.95;93.39;99813.05;1638041;85;21542;-73
2022/12/09 00:24:05;;;;;;;15.95;10.48;;;;;;;-0.95;93.29;99804.39;1647161;85;21039;-75
2022/12/09 00:26:32;;;;;;;17.20;11.43;;;;;;;-0.94;92.88;99797.78;1646154;85;21031;-73
2022/12/09 00:28:59;;;;;;;19.55;11.30;;;;;;;-1.00;92.81;99789.86;1652579;85;21031;-71
2022/12/09 00:31:28;;;;;;;20.23;11.45;;;;;;;-1.04;92.40;99795.37;1652079;85;21026;-75
2022/12/09 00:33:56;;;;;;;17.42;12.03;;;;;;;-1.11;92.69;99799.27;1676261;84;21066;-73
2022/12/09 00:36:23;;;;;;;19.87;12.93;;;;;;;-1.13;92.83;99812.39;1694152;84;21038;-72
2022/12/09 00:38:49;;;;;;;16.97;11.63;;;;;;;-1.11;92.92;99834.47;1684877;84;21089;-70
2022/12/09 00:41:16;;;;;;;19.27;11.65;;;;;;;-1.11;93.12;99848.81;1678812;84;21114;-74
2022/12/09 00:43:42;;;;;;;18.85;13.20;;;;;;;-1.07;92.92;99847.22;1682930;84;21130;-74
2022/12/09 00:46:11;;;;;;;19.98;12.20;;;;;;;-1.11;92.84;99855.33;1708774;83;22060;-72
2022/12/09 00:48:38;;;;;;;18.23;12.85;;;;;;;-1.20;92.55;99860.16;1705002;83;21114;-73
2022/12/09 00:51:06;;;;;;;18.37;12.20;;;;;;;-1.28;92.67;99851.09;1711098;83;21056;-74
2022/12/09 00:53:33;;;;;;;18.40;11.90;;;;;;;-1.34;92.87;99857.98;1695969;84;21202;-73
2022/12/09 00:56:00;;;;;;;18.90;12.78;;;;;;;-1.39;93.25;99869.52;1699219;83;22227;-75
2022/12/09 00:58:26;;;;;;;20.45;13.15;;;;;;;-1.40;93.33;99861.78;1713579;79;20949;-77
2022/12/09 01:00:53;;;;;;;23.80;14.28;;;;;;;-1.39;93.60;99851.74;1673380;84;21042;-78
2022/12/09 01:03:20;;;;;;;20.77;12.63;;;;;;;-1.44;94.13;99841.56;1699406;84;21612;-74
2022/12/09 01:05:47;;;;;;;23.77;12.85;;;;;;;-1.39;94.28;99839.55;1709240;81;21543;-75
2022/12/09 01:08:13;;;;;;;19.50;13.15;;;;;;;-1.36;94.15;99828.56;1714486;81;21014;-76
2022/12/09 01:10:43;;;;;;;19.30;12.60;;;;;;;-1.30;94.19;99819.07;1720980;82;21017;-71
2022/12/09 01:13:11;;;;;;;23.10;14.58;;;;;;;-1.27;94.21;99808.48;1720999;82;21081;-75
2022/12/09 01:15:38;;;;;;;22.90;13.85;;;;;;;-1.18;94.42;99810.52;1717052;82;21067;-74
2022/12/09 01:18:05;;;;;;;22.37;14.87;;;;;;;-1.17;94.33;99804.38;1712830;82;21088;-74
2022/12/09 01:20:33;;;;;;;17.67;11.03;;;;;;;-1.09;94.50;99803.45;1723749;82;21599;-75
2022/12/09 01:23:00;;;;;;;19.65;13.35;;;;;;;-1.04;94.54;99802.72;1723276;82;21532;-76
2022/12/09 01:25:27;;;;;;;19.80;11.20;;;;;;;-1.00;93.94;99802.91;1721805;82;21206;-73
2022/12/09 01:27:54;;;;;;;23.87;13.70;;;;;;;-1.05;93.57;99798.42;1722422;82;21093;-73
2022/12/09 01:30:21;;;;;;;23.25;13.40;;;;;;;-1.05;93.68;99785.38;1728268;82;21739;-75
2022/12/09 01:32:48;;;;;;;19.45;13.78;;;;;;;-1.06;93.72;99777.67;1707686;82;21009;-74
2022/12/09 01:35:14;;;;;;;22.50;13.30;;;;;;;-1.06;93.32;99778.98;1716843;82;21010;-72
2022/12/09 01:37:41;;;;;;;21.97;14.28;;;;;;;-1.05;93.86;99785.86;1722263;82;21699;-72
2022/12/09 01:40:14;;;;;;;21.87;14.10;;;;;;;-0.99;93.66;99790.69;1725539;82;21053;-72
2022/12/09 01:42:40;;;;;;;26.07;15.25;;;;;;;-0.91;93.35;99783.70;1734564;82;21574;-73
2022/12/09 01:45:30;;;;;;;21.80;13.62;;;;;;;-0.98;93.33;99787.17;1723891;82;21557;-73
2022/12/09 01:48:12;;;;;;;21.82;14.58;;;;;;;-1.02;93.64;99786.52;1718650;82;21021;-72
2022/12/09 01:50:46;;;;;;;;;;;;;;;-1.00;93.36;99785.13;1720202;82;21033;-73
2022/12/09 01:53:13;;;;;;;22.58;14.15;;;;;;;-1.01;93.80;99773.83;1711017;82;20442;-74
2022/12/09 01:55:40;;;;;;;18.30;13.13;;;;;;;-0.98;93.87;99768.08;1721529;82;21971;-69
2022/12/09 01:58:07;;;;;;;20.65;13.28;;;;;;;-0.95;93.72;99774.40;1718907;82;21047;-73
2022/12/09 02:00:34;;;;;;;22.05;13.98;;;;;;;-0.86;93.70;99770.76;1729501;81;21085;-72
2022/12/09 02:03:01;;;;;;;20.48;13.20;;;;;;;-0.81;94.10;99771.32;1725898;80;21153;-70
2022/12/09 02:05:29;;;;;;;24.25;13.30;;;;;;;-0.76;94.34;99768.41;1719135;82;21088;-73
2022/12/09 02:07:56;;;;;;;20.95;12.23;;;;;;;-0.69;93.88;99763.20;1720373;82;21126;-73
2022/12/09 02:10:23;;;;;;;24.77;12.82;;;;;;;-0.75;93.25;99764.89;1715309;83;21065;-75
2022/12/09 02:13:12;;;;;;;24.00;14.40;;;;;;;-0.75;92.84;99762.72;1692806;83;21061;-73
2022/12/09 02:15:52;;;;;;;22.75;14.38;;;;;;;-0.84;92.59;99761.06;1708831;83;21061;-75
2022/12/09 02:18:36;;;;;;;20.32;11.05;;;;;;;-0.90;92.45;99760.62;1713501;83;20997;-73
2022/12/09 02:21:11;;;;;;;;;;;;;;;-0.94;92.13;99766.96;1718756;83;21545;-73
2022/12/09 02:23:50;;;;;;;17.70;11.43;;;;;;;-1.07;92.15;99765.08;1709203;83;20181;-74
2022/12/09 02:26:28;;;;;;;16.97;10.88;;;;;;;-1.11;92.13;99758.86;1714835;83;20978;-72
2022/12/09 02:29:14;;;;;;;15.65;9.70;;;;;;;-1.19;92.05;99761.45;1709615;83;21008;-74
2022/12/09 02:31:49;;;;;;;16.60;10.53;;;;;;;-1.22;92.04;99769.48;1703382;83;21061;-75
2022/12/09 02:34:22;;;;;;;16.90;10.93;;;;;;;-1.30;92.27;99785.19;1694634;83;21272;-75
2022/12/09 02:37:29;;;;;;;13.90;8.65;;;;;;;-1.34;92.47;99788.91;1713445;83;21035;-77
2022/12/09 02:40:00;;;;;;;17.07;11.12;;;;;;;-1.37;92.41;99786.47;1704528;83;21083;-76
2022/12/09 02:42:32;;;;;;;22.70;13.55;;;;;;;-1.45;92.49;99776.50;1677018;85;21066;-76
2022/12/09 02:45:02;;;;;;;19.60;13.00;;;;;;;-1.48;93.17;99771.02;1676475;85;21112;-75
2022/12/09 02:47:32;;;;;;;22.95;12.85;;;;;;;-1.40;93.51;99777.91;1643481;84;21495;-77
2022/12/09 02:50:02;;;;;;;25.32;14.73;;;;;;;-1.38;93.54;99783.03;1638951;85;21108;-75
2022/12/09 02:52:30;;;;;;;23.52;13.88;;;;;;;-1.34;93.54;99779.31;1665161;84;21075;-73
2022/12/09 02:54:59;;;;;;;29.20;13.93;;;;;;;-1.32;93.67;99778.76;1668741;85;20978;-73
2022/12/09 02:57:27;;;;;;;23.45;14.58;;;;;;;-1.27;93.41;99774.12;1669108;82;21027;-76
2022/12/09 02:59:54;;;;;;;20.62;13.20;;;;;;;-1.24;93.66;99777.00;1676201;84;21231;-76
2022/12/09 03:02:27;;;;;;;20.97;12.85;;;;;;;-1.23;93.46;99778.22;1702594;82;20983;-76
2022/12/09 03:05:28;;;;;;;19.25;11.93;;;;;;;-1.23;93.22;99774.78;1701968;82;21022;-74
2022/12/09 03:08:23;;;;;;;22.20;12.47;;;;;;;-1.29;92.86;99772.07;1702423;82;21541;-77
2022/12/09 03:11:08;;;;;;;19.32;11.97;;;;;;;-1.40;92.92;99777.91;1726449;82;21045;-74
2022/12/09 03:13:55;;;;;;;19.62;12.73;;;;;;;-1.47;93.01;99772.71;1704554;83;21082;-75
2022/12/09 03:16:41;;;;;;;18.15;11.00;;;;;;;-1.52;93.21;99780.42;1669175;85;21796;-74
2022/12/09 03:19:36;;;;;;;17.80;11.38;;;;;;;-1.52;93.69;99776.52;1728488;81;21144;-75
2022/12/09 03:22:08;;;;;;;16.05;10.30;;;;;;;-1.47;93.90;99780.97;1738543;82;21026;-71
2022/12/09 03:24:42;;;;;;;;;;;;;;;-1.42;93.86;99784.16;1739274;82;21017;-73
2022/12/09 03:27:11;;;;;;;17.85;11.83;;;;;;;-1.43;93.51;99782.02;1726494;82;22136;-73
2022/12/09 03:29:39;;;;;;;16.27;9.80;;;;;;;-1.43;93.46;99774.64;1725550;82;20987;-72
2022/12/09 03:32:08;;;;;;;13.22;9.40;;;;;;;-1.44;93.73;99779.03;1721384;82;21288;-72
2022/12/09 03:34:37;;;;;;;13.93;9.35;;;;;;;-1.39;93.49;99779.60;1724990;82;21515;-74
2022/12/09 03:37:05;;;;;;;10.85;7.45;;;;;;;-1.42;93.14;99782.84;1730219;82;21497;-75
2022/12/09 03:39:34;;;;;;;11.03;7.35;;;;;;;-1.42;93.14;99778.94;1726801;82;22561;-73
2022/12/09 03:42:03;;;;;;;10.78;7.22;;;;;;;-1.39;93.04;99776.99;1732264;82;21569;-70
2022/12/09 03:44:38;;;;;;;10.25;7.28;;;;;;;-1.39;92.69;99771.78;1722841;82;21093;-74
2022/12/09 03:47:05;;;;;;;10.85;7.70;;;;;;;-1.34;92.40;99762.84;1714884;82;20994;-71
2022/12/09 03:49:32;;;;;;;10.53;7.83;;;;;;;-1.35;92.42;99763.33;1712882;82;21049;-74
2022/12/09 03:52:16;;;;;;;11.90;8.18;;;;;;;-1.29;92.29;99764.25;1724322;82;21219;-74
2022/12/09 03:54:45;;;;;;;12.03;8.35;;;;;;;-1.29;91.98;99768.64;1733307;81;20991;-73
2022/12/09 03:57:15;;;;;;;13.43;9.08;;;;;;;-1.31;91.45;99767.89;1747529;80;21164;-77
2022/12/09 03:59:45;;;;;;;13.43;9.95;;;;;;;-1.37;91.64;99773.00;1738861;82;21068;-74
2022/12/09 04:02:12;;;;;;;13.08;9.10;;;;;;;-1.34;91.59;99770.19;1733395;82;21520;-74
2022/12/09 04:04:40;;;;;;;12.28;8.78;;;;;;;-1.37;91.64;99768.23;1720693;82;21498;-73
2022/12/09 04:07:07;;;;;;;13.03;9.28;;;;;;;-1.33;91.67;99769.72;1717752;82;21014;-72
2022/12/09 04:09:34;;;;;;;16.57;10.30;;;;;;;-1.33;91.85;99761.90;1727713;82;21125;-72
2022/12/09 04:12:02;;;;;;;14.95;9.80;;;;;;;-1.31;91.65;99746.56;1734708;82;21549;-74
2022/12/09 04:14:29;;;;;;;16.70;11.05;;;;;;;-1.27;91.76;99751.13;1729328;81;21085;-72
2022/12/09 04:16:55;;;;;;;18.55;11.73;;;;;;;-1.27;92.01;99757.17;1737698;82;21645;-71
2022/12/09 04:19:22;;;;;;;18.12;11.45;;;;;;;-1.18;92.24;99742.73;1722122;82;21070;-73
2022/12/09 04:21:48;;;;;;;21.40;12.75;;;;;;;-1.16;91.99;99745.25;1722192;82;21043;-73
2022/12/09 04:24:14;;;;;;;18.35;11.33;;;;;;;-1.10;91.99;99749.64;1724964;82;21033;-72
2022/12/09 04:26:41;;;;;;;20.82;14.43;;;;;;;-1.10;91.90;99750.09;1727197;82;21268;-70
2022/12/09 04:29:10;;;;;;;18.87;12.43;;;;;;;-1.09;91.34;99759.13;1727350;82;21222;-70
2022/12/09 04:31:36;;;;;;;19.40;13.08;;;;;;;-1.17;91.08;99749.64;1730473;82;21060;-71
2022/12/09 04:34:03;;;;;;;20.00;12.85;;;;;;;-1.17;91.48;99735.77;1720764;82;21156;-71
2022/12/09 04:36:29;;;;;;;18.52;12.88;;;;;;;-1.11;92.02;99731.00;1704724;82;21021;-73
2022/12/09 04:38:56;;;;;;;19.27;13.28;;;;;;;-1.02;91.99;99728.31;1686865;84;21050;-71
2022/12/09 04:41:22;;;;;;;19.70;13.72;;;;;;;-1.00;91.37;99736.41;1688460;83;21183;-75
2022/12/09 04:43:49;;;;;;;16.70;12.10;;;;;;;-0.98;91.53;99738.09;1700589;84;20979;-71
2022/12/09 04:46:16;;;;;;;22.58;13.45;;;;;;;-1.00;91.35;99727.28;1689020;84;21065;-73
2022/12/09 04:48:43;;;;;;;19.40;13.43;;;;;;;-1.01;91.19;99715.62;1676745;85;21031;-72
2022/12/09 04:51:11;;;;;;;23.98;15.03;;;;;;;-0.98;91.12;99717.23;1723067;82;20978;-73
2022/12/09 04:53:38;;;;;;;26.27;16.05;;;;;;;-0.98;91.33;99724.58;1723667;82;21106;-73
2022/12/09 04:56:09;;;;;;;23.18;14.80;;;;;;;-0.91;91.08;99719.80;1732859;82;21020;-72
2022/12/09 04:58:36;;;;;;;25.70;16.02;;;;;;;-0.95;90.86;99719.63;1726972;82;21073;-74
2022/12/09 05:01:12;;;;;;;24.43;14.85;;;;;;;-0.93;90.76;99717.77;1720478;82;21044;-75
2022/12/09 05:03:38;;;;;;;19.92;14.63;;;;;;;-0.98;90.73;99717.23;1727660;82;21033;-73
2022/12/09 05:06:07;;;;;;;20.57;14.90;;;;;;;-0.94;90.75;99714.80;1716385;82;21099;-73
2022/12/09 05:08:34;;;;;;;20.27;14.10;;;;;;;-0.96;90.95;99717.50;1721836;82;21562;-72
2022/12/09 05:11:00;;;;;;;20.43;13.38;;;;;;;-0.91;90.87;99713.28;1695299;84;21071;-73
2022/12/09 05:13:27;;;;;;;19.42;13.20;;;;;;;-0.91;90.87;99713.28;1736113;82;21820;-74
2022/12/09 05:16:08;;;;;;;18.67;12.33;;;;;;;-0.86;90.78;99708.16;1736706;82;21050;-74
2022/12/09 05:18:34;;;;;;;18.45;12.07;;;;;;;-0.85;90.58;99712.45;1736721;82;21135;-74
2022/12/09 05:21:06;;;;;;;16.87;11.28;;;;;;;-0.86;90.56;99716.45;1738248;82;21127;-72
2022/12/09 05:23:33;;;;;;;18.85;11.53;;;;;;;-0.82;90.44;99720.55;1738591;82;21132;-73
2022/12/09 05:26:04;;;;;;;17.73;12.33;;;;;;;-0.86;89.90;99712.07;1736610;82;21105;-73
2022/12/09 05:28:32;;;;;;;19.92;13.13;;;;;;;-0.85;89.76;99712.45;1736735;82;21249;-73
2022/12/09 05:31:03;;;;;;;21.65;13.38;;;;;;;-0.90;89.90;99707.98;1736552;82;21133;-73
2022/12/09 05:33:30;;;;;;;19.37;13.53;;;;;;;-0.86;89.96;99707.33;1696076;84;21079;-72
2022/12/09 05:35:57;;;;;;;16.52;11.40;;;;;;;-0.84;89.66;99703.68;1736383;82;21042;-70
2022/12/09 05:38:23;;;;;;;17.02;11.63;;;;;;;-0.87;89.51;99706.50;1736824;82;21173;-74
2022/12/09 05:40:51;;;;;;;15.88;10.50;;;;;;;-0.84;89.50;99711.98;1733898;82;21165;-72
2022/12/09 05:43:18;;;;;;;14.68;9.93;;;;;;;-0.83;89.73;99699.29;1736761;82;21144;-73
2022/12/09 05:45:44;;;;;;;15.78;10.20;;;;;;;-0.85;89.13;99702.02;1736656;82;21045;-73
2022/12/09 05:48:10;;;;;;;15.75;10.78;;;;;;;-0.88;89.54;99693.08;1736867;82;21449;-69
2022/12/09 05:50:37;;;;;;;16.20;10.90;;;;;;;-0.81;89.70;99696.15;1738006;82;21029;-70
2022/12/09 05:53:04;;;;;;;16.42;10.93;;;;;;;-0.80;89.61;99697.33;1738886;82;21121;-73
2022/12/09 05:55:31;;;;;;;15.80;10.30;;;;;;;-0.75;89.48;99708.80;1735050;82;21144;-73
2022/12/09 05:57:58;;;;;;;17.02;11.80;;;;;;;-0.78;89.31;99710.28;1733234;82;20963;-73
2022/12/09 06:00:24;;;;;;;14.65;10.23;;;;;;;-0.78;89.11;99708.98;1734701;82;21581;-69
2022/12/09 06:02:51;;;;;;;16.55;11.83;;;;;;;-0.85;89.08;99714.20;1730293;82;21093;-71
2022/12/09 06:05:17;;;;;;;16.42;11.10;;;;;;;-0.82;89.26;99708.81;1728204;82;21196;-71
2022/12/09 06:07:44;;;;;;;16.80;11.00;;;;;;;-0.82;89.45;99707.50;1735431;82;21055;-71
2022/12/09 06:10:10;;;;;;;17.02;11.45;;;;;;;-0.75;89.47;99707.49;1720705;82;21533;-72
2022/12/09 06:12:37;;;;;;;21.65;13.15;;;;;;;-0.72;89.53;99701.23;1733390;82;21069;-73
2022/12/09 06:15:04;;;;;;;19.73;12.43;;;;;;;-0.66;89.42;99708.67;1739616;82;21423;-71
2022/12/09 06:17:31;;;;;;;20.43;13.35;;;;;;;-0.70;89.21;99698.89;1743744;82;21124;-71
2022/12/09 06:19:58;;;;;;;21.87;13.75;;;;;;;-0.68;89.17;99706.16;1744148;82;21836;-71
2022/12/09 06:22:24;;;;;;;20.37;12.93;;;;;;;-0.72;89.16;99702.06;1715505;80;21053;-72
2022/12/09 06:24:50;;;;;;;20.20;13.65;;;;;;;-0.67;89.10;99697.88;1744179;82;21026;-72
2022/12/09 06:27:17;;;;;;;21.40;13.68;;;;;;;-0.71;89.03;99696.41;1705496;83;21049;-71
2022/12/09 06:29:43;;;;;;;19.52;12.37;;;;;;;-0.66;89.23;99695.63;1680533;85;21118;-72
2022/12/09 06:32:10;;;;;;;16.52;12.18;;;;;;;-0.65;89.38;99690.31;1720034;80;21693;-71
2022/12/09 06:34:37;;;;;;;15.68;10.63;;;;;;;-0.58;89.35;99681.61;1738215;82;21038;-73
2022/12/09 06:37:03;;;;;;;14.47;9.55;;;;;;;-0.58;89.32;99692.52;1742506;82;21343;-71
2022/12/09 06:39:30;;;;;;;13.48;8.53;;;;;;;-0.55;89.04;99686.64;1730388;82;21041;-70
2022/12/09 06:41:56;;;;;;;14.33;9.88;;;;;;;-0.60;88.68;99693.92;1729674;80;21148;-70
2022/12/09 06:44:23;;;;;;;14.07;9.70;;;;;;;-0.61;88.69;99694.88;1732450;82;21178;-72
2022/12/09 06:46:50;;;;;;;15.53;10.53;;;;;;;-0.60;89.15;99692.17;1743760;82;21050;-73
2022/12/09 06:49:16;;;;;;;15.90;10.82;;;;;;;-0.50;89.12;99692.86;1729238;82;20990;-71
2022/12/09 06:51:43;;;;;;;16.27;10.85;;;;;;;-0.49;89.01;99695.86;1736551;82;21017;-74
2022/12/09 06:54:09;;;;;;;17.45;11.50;;;;;;;-0.53;88.78;99686.55;1728218;82;21078;-74
2022/12/09 06:56:36;;;;;;;22.65;14.47;;;;;;;-0.48;88.90;99702.29;1705916;82;21139;-75
2022/12/09 06:59:05;;;;;;;19.02;12.73;;;;;;;-0.44;88.47;99706.38;1679198;85;21526;-75
2022/12/09 07:01:32;;;;;;;20.48;13.48;;;;;;;-0.51;88.48;99701.64;1736181;82;21062;-74
2022/12/09 07:03:59;;;;;;;17.65;11.38;;;;;;;-0.51;88.41;99710.78;1742361;82;21014;-72
2022/12/09 07:06:43;;;;;;;17.50;11.73;;;;;;;-0.60;88.43;99696.09;1715209;82;21050;-73
2022/12/09 07:09:16;;;;;;;18.52;11.55;;;;;;;-0.57;88.59;99689.83;1735018;82;21130;-71
2022/12/09 07:11:44;;;;;;;20.00;13.40;;;;;;;-0.56;88.78;99685.44;1698063;83;21073;-73
2022/12/09 07:14:11;;;;;;;18.95;12.63;;;;;;;-0.53;88.85;99685.25;1702038;83;21037;-72
2022/12/09 07:16:38;;;;;;;20.68;13.38;;;;;;;-0.52;88.97;99688.21;1697791;84;21591;-72
2022/12/09 07:19:05;;;;;;;20.17;13.03;;;;;;;-0.44;89.03;99679.44;1700415;83;21059;-71
2022/12/09 07:21:32;;;;;;;19.87;14.53;;;;;;;-0.40;89.23;99679.13;1700707;83;21239;-72
2022/12/09 07:24:00;;;;;;;21.85;15.13;;;;;;;-0.30;89.17;99675.92;1695910;84;21676;-74
2022/12/09 07:26:32;;;;;;;24.67;15.68;;;;;;;-0.29;88.83;99665.39;1652573;85;21542;-73
2022/12/09 07:29:02;;;;;;;23.47;16.27;;;;;;;-0.24;88.90;99667.69;1720542;82;21075;-71
2022/12/09 07:31:28;;;;;;;24.15;15.88;;;;;;;-0.22;89.09;99664.02;1732262;82;21651;-71
2022/12/09 07:33:56;;;;;;;24.72;16.73;;;;;;;-0.15;88.93;99667.09;1723394;82;21109;-72
2022/12/09 07:36:26;;;;;;;26.97;18.17;;;;;;;-0.17;88.79;99665.49;1722218;82;21025;-74
2022/12/09 07:39:05;;;;;;;27.05;18.73;;;;;;;-0.14;88.67;99660.91;1712345;81;21040;-71
2022/12/09 07:41:32;;;;;;;27.67;18.92;;;;;;;-0.12;88.93;99655.59;1720506;82;21037;-72
2022/12/09 07:43:58;;;;;;;29.70;18.90;;;;;;;-0.05;88.82;99659.00;1722095;82;21339;-72
2022/12/09 07:46:27;;;;;;;30.20;20.50;;;;;;;0.00;88.94;99656.09;1716709;82;21148;-73
2022/12/09 07:48:54;;;;;;;30.40;18.85;;;;;;;0.17;88.50;99665.39;1688200;83;21087;-72
2022/12/09 07:51:20;;;;;;;27.35;18.82;;;;;;;0.27;88.48;99672.13;1725628;82;21084;-71
2022/12/09 07:53:47;;;;;;;27.50;18.35;;;;;;;0.30;88.38;99671.94;1730458;82;21082;-71
2022/12/09 07:56:16;;;;;;;27.32;17.00;;;;;;;0.29;88.04;99673.72;1720636;82;21021;-72
2022/12/09 07:58:44;;;;;;;27.20;17.67;;;;;;;0.28;87.64;99669.90;1737602;81;21114;-71
2022/12/09 08:01:14;;;;;;;28.60;16.75;;;;;;;0.40;87.55;99679.51;1726376;82;21502;-70
2022/12/09 08:03:40;;;;;;;25.70;16.55;;;;;;;0.39;87.16;99685.69;1726811;81;21048;-71
2022/12/09 08:06:09;;;;;;;25.57;16.70;;;;;;;0.29;87.06;99680.70;1725826;82;21037;-71
2022/12/09 08:08:36;;;;;;;27.85;17.27;;;;;;;0.22;87.03;99683.38;1721147;81;21077;-70
2022/12/09 08:11:11;;;;;;;28.15;17.25;;;;;;;0.23;87.03;99684.56;1731326;82;21095;-71
2022/12/09 08:13:38;;;;;;;30.80;19.15;;;;;;;0.21;87.38;99683.83;1734597;82;21517;-70
2022/12/09 08:16:06;;;;;;;27.90;17.90;;;;;;;0.26;87.51;99676.53;1725507;81;21053;-72
2022/12/09 08:18:33;;;;;;;28.02;17.92;;;;;;;0.29;87.52;99672.86;1729516;82;21048;-73
2022/12/09 08:21:05;;;;;;;27.77;16.23;;;;;;;0.39;87.59;99675.23;1711183;82;22247;-70
2022/12/09 08:23:33;;;;;;;25.77;15.95;;;;;;;0.45;87.74;99665.66;1713435;82;21159;-72
2022/12/09 08:25:59;;;;;;;23.07;15.23;;;;;;;0.60;87.61;99662.47;1732307;82;21591;-70
2022/12/09 08:28:25;;;;;;;23.22;15.98;;;;;;;0.78;87.20;99662.95;1733717;82;21020;-71
2022/12/09 08:30:52;;;;;;;27.90;16.57;;;;;;;0.82;87.18;99655.73;1723613;81;21066;-70
2022/12/09 08:33:18;;;;;;;28.57;17.30;;;;;;;0.88;87.39;99654.81;1731146;81;21730;-72
2022/12/09 08:35:44;;;;;;;22.37;14.75;;;;;;;0.95;87.19;99650.83;1736854;81;21763;-73
2022/12/09 08:38:11;;;;;;;24.57;14.65;;;;;;;1.11;86.82;99649.74;1729696;81;21069;-73
2022/12/09 08:40:37;;;;;;;24.02;15.25;;;;;;;1.27;86.48;99645.06;1734828;82;21077;-72
2022/12/09 08:43:07;;;;;;;22.00;15.85;;;;;;;1.34;86.51;99642.37;1720757;82;21058;-71
2022/12/09 08:45:38;;;;;;;24.43;15.78;;;;;;;1.40;86.53;99633.23;1729057;81;21045;-75
2022/12/09 08:48:05;;;;;;;29.80;18.73;;;;;;;1.43;86.28;99625.17;1725920;80;21302;-75
2022/12/09 08:50:33;;;;;;;30.00;19.45;;;;;;;1.44;85.69;99615.05;1724602;82;21044;-70
2022/12/09 08:52:59;;;;;;;30.43;20.60;;;;;;;1.42;85.34;99623.48;1719833;82;21566;-74
2022/12/09 08:55:26;;;;;;;30.92;20.35;;;;;;;1.37;85.29;99622.52;1727341;81;21065;-77
2022/12/09 08:57:52;;;;;;;30.25;21.60;;;;;;;1.42;84.99;99622.66;1731051;82;21133;-73
2022/12/09 09:00:19;;;;;;;33.92;21.65;;;;;;;1.50;84.78;99626.37;1725601;82;21241;-74
2022/12/09 09:02:46;;;;;;;36.53;24.15;;;;;;;1.53;85.20;99626.64;1733307;82;21447;-74
2022/12/09 09:05:12;;;;;;;31.37;23.38;;;;;;;1.54;84.93;99626.98;1738244;82;21683;-77
2022/12/09 09:07:39;;;;;;;34.45;22.90;;;;;;;1.52;84.79;99618.41;1738685;82;21001;-73
2022/12/09 09:10:07;;;;;;;32.45;23.92;;;;;;;1.52;84.81;99617.09;1734354;82;21086;-73
2022/12/09 09:12:34;;;;;;;33.98;24.20;;;;;;;1.66;84.64;99613.00;1710209;82;21824;-75
2022/12/09 09:15:00;;;;;;;35.63;25.50;;;;;;;1.74;84.17;99610.63;1733716;82;21039;-75
2022/12/09 09:17:26;;;;;;;34.25;25.85;;;;;;;1.70;83.84;99602.65;1721128;81;20958;-74
2022/12/09 09:19:53;;;;;;;37.00;26.20;;;;;;;1.68;84.29;99604.55;1704282;84;21149;-76
2022/12/09 09:22:19;;;;;;;35.52;24.40;;;;;;;1.76;84.30;99613.97;1671711;84;21103;-74
2022/12/09 09:25:42;;;;;;;34.53;25.67;;;;;;;1.84;84.20;99613.39;1834449;77;22546;-75
2022/12/09 09:28:09;;;;;;;34.08;25.88;;;;;;;1.89;83.82;99615.20;1783106;80;20977;-72
2022/12/09 09:30:36;;;;;;;36.15;25.90;;;;;;;1.89;83.82;99615.20;1782873;80;21118;-77
2022/12/09 09:33:03;;;;;;;33.55;24.98;;;;;;;1.95;84.04;99603.40;1757103;80;21567;-76
2022/12/09 09:35:30;;;;;;;34.83;26.45;;;;;;;2.14;83.88;99595.83;1767475;80;21046;-74
2022/12/09 09:37:57;;;;;;;34.78;27.13;;;;;;;2.33;83.49;99599.64;1770255;78;21025;-73
2022/12/09 09:40:25;;;;;;;36.03;25.88;;;;;;;2.39;83.28;99599.64;1787032;80;21050;-73
2022/12/09 09:42:52;;;;;;;43.92;29.45;;;;;;;2.43;83.23;99597.95;1781160;80;21114;-74
2022/12/09 09:45:21;;;;;;;39.92;28.23;;;;;;;2.50;83.16;99603.58;1784943;78;21126;-74
2022/12/09 09:47:58;;;;;;;35.35;23.98;;;;;;;2.53;82.88;99596.31;1794148;78;21053;-74
2022/12/09 09:50:35;;;;;;;34.90;22.90;;;;;;;2.57;82.52;99595.59;1788352;78;21613;-72
2022/12/09 09:53:05;;;;;;;30.08;22.15;;;;;;;2.64;82.24;99589.37;1785919;78;21025;-71
2022/12/09 09:55:37;;;;;;;35.20;23.42;;;;;;;2.84;81.98;99585.16;1751233;80;21211;-75
2022/12/09 09:58:27;;;;;;;35.92;25.72;;;;;;;2.84;81.98;99585.16;1792404;79;21488;-74
2022/12/09 10:01:02;;;;;;;40.92;27.07;;;;;;;2.82;82.05;99577.44;1799392;78;20987;-75
2022/12/09 10:03:43;;;;;;;34.63;26.05;;;;;;;2.85;82.19;99567.16;1790889;80;21509;-73
2022/12/09 10:06:42;;;;;;;36.60;26.42;;;;;;;2.88;82.06;99565.13;1777709;78;21041;-71
2022/12/09 10:09:20;;;;;;;37.58;25.15;;;;;;;2.84;81.93;99563.71;1786167;80;21110;-72
2022/12/09 10:11:54;;;;;;;35.48;23.70;;;;;;;2.89;81.60;99553.66;1783961;78;21567;-74
2022/12/09 10:14:59;;;;;;;32.30;21.82;;;;;;;2.89;81.60;99553.66;1762501;78;21062;-74
2022/12/09 10:17:36;;;;;;;31.05;22.82;;;;;;;3.04;81.53;99545.52;1788673;78;20990;-75
2022/12/09 10:20:19;;;;;;;30.77;22.25;;;;;;;3.07;81.36;99542.63;1785177;79;21049;-77
2022/12/09 10:22:51;;;;;;;28.50;21.07;;;;;;;3.03;81.70;99532.86;1783468;80;21101;-75
2022/12/09 10:25:24;;;;;;;29.55;21.87;;;;;;;3.07;82.18;99531.67;1779645;79;21532;-76
2022/12/09 10:27:57;;;;;;;;;;;;;;;3.08;82.21;99533.81;1778216;79;21141;-75
2022/12/09 10:30:23;;;;;;;29.52;20.60;;;;;;;3.01;81.90;99532.15;1781075;80;20126;-75
2022/12/09 10:32:50;;;;;;;26.93;18.90;;;;;;;2.87;82.04;99533.77;1774318;78;20998;-68
2022/12/09 10:35:23;;;;;;;27.62;21.45;;;;;;;2.88;82.37;99529.71;1760969;79;21099;-79
2022/12/09 10:37:51;;;;;;;27.65;21.10;;;;;;;2.96;82.00;99526.47;1772932;79;20987;-76
2022/12/09 10:40:41;;;;;;;30.02;22.27;;;;;;;2.84;82.35;99513.86;1784816;79;20999;-80
2022/12/09 10:43:36;;;;;;;30.32;23.02;;;;;;;2.84;82.35;99513.86;1778482;79;21517;-81
2022/12/09 10:46:13;;;;;;;29.80;22.62;;;;;;;2.75;82.25;99508.87;1764127;79;21054;-75
2022/12/09 10:48:47;;;;;;;30.32;23.77;;;;;;;2.68;82.49;99510.30;1754105;79;21043;-75
2022/12/09 10:51:28;;;;;;;31.15;22.35;;;;;;;2.65;82.50;99504.50;1775158;79;22025;-77
2022/12/09 10:54:12;;;;;;;27.22;20.30;;;;;;;2.85;81.96;99505.50;1780474;79;21029;-75
2022/12/09 10:56:59;;;;;;;31.82;22.07;;;;;;;2.85;81.96;99505.50;1772222;79;21077;-75
2022/12/09 10:59:28;;;;;;;30.43;22.82;;;;;;;2.77;81.71;99499.56;1777114;79;20999;-84
2022/12/09 11:02:00;;;;;;;33.40;24.43;;;;;;;2.67;82.07;99496.03;1779419;78;21910;-81
2022/12/09 11:04:39;;;;;;;31.07;23.12;;;;;;;2.63;82.41;99498.55;1769719;79;21038;-72
2022/12/09 11:07:15;;;;;;;30.10;21.65;;;;;;;2.60;82.54;99484.36;1770815;79;21470;-72
2022/12/09 11:09:49;;;;;;;29.45;21.48;;;;;;;2.60;82.54;99484.36;1774441;79;21587;-75
2022/12/09 11:12:31;;;;;;;28.92;22.17;;;;;;;2.75;82.24;99485.74;1769577;79;21010;-74
2022/12/09 11:15:04;;;;;;;30.05;22.20;;;;;;;2.65;82.07;99477.78;1781347;79;21137;-75
2022/12/09 11:17:33;;;;;;;29.32;20.72;;;;;;;2.51;82.28;99479.36;1780392;79;21347;-69
2022/12/09 11:20:21;;;;;;;28.90;20.70;;;;;;;2.41;82.82;99477.95;1771890;79;21050;-73
2022/12/09 11:23:14;;;;;;;29.60;21.45;;;;;;;2.39;83.19;99484.28;1770743;79;21013;-73
2022/12/09 11:25:53;;;;;;;29.23;20.85;;;;;;;2.31;83.30;99487.51;1768699;80;21029;-73
2022/12/09 11:28:25;;;;;;;30.20;20.85;;;;;;;2.36;83.89;99485.37;1786952;79;22127;-72
2022/12/09 11:31:16;;;;;;;27.67;21.48;;;;;;;2.45;83.61;99480.67;1788828;80;21469;-74
2022/12/09 11:33:53;;;;;;;31.55;24.23;;;;;;;2.39;83.52;99478.55;1789101;80;21533;-73
2022/12/09 11:36:31;;;;;;;37.35;27.45;;;;;;;2.25;83.51;99477.03;1766811;79;21077;-70
2022/12/09 11:39:30;;;;;;;40.73;29.98;;;;;;;2.14;83.52;99481.83;1758157;80;21009;-75